createdAt,value
2023-03-06T00:00:34.942Z,100109.97
2023-03-06T00:03:03.992Z,100110.34
2023-03-06T00:05:31.683Z,100109.00
2023-03-06T00:07:59.135Z,100101.66
2023-03-06T00:10:28.626Z,100095.53
2023-03-06T00:12:57.322Z,100097.03
2023-03-06T00:15:26.410Z,100093.22
2023-03-06T00:17:54.143Z,100100.22
2023-03-06T00:20:23.848Z,100094.31
2023-03-06T00:22:51.871Z,100086.59
2023-03-06T00:25:21.486Z,100083.09
2023-03-06T00:27:49.412Z,100080.34
2023-03-06T00:30:19.424Z,100074.38
2023-03-06T00:32:46.932Z,100071.97
2023-03-06T00:35:15.204Z,100072.59
2023-03-06T00:37:44.272Z,100075.44
2023-03-06T00:40:14.793Z,100076.41
2023-03-06T00:42:42.465Z,100077.81
2023-03-06T00:45:10.695Z,100060.56
2023-03-06T00:47:38.448Z,100060.38
2023-03-06T00:50:06.873Z,100045.25
2023-03-06T00:52:34.376Z,100037.50
2023-03-06T00:55:03.326Z,100041.31
2023-03-06T00:57:31.268Z,100050.53
2023-03-06T00:59:58.704Z,100037.66
2023-03-06T01:02:26.460Z,100027.00
2023-03-06T01:04:53.942Z,100022.53
2023-03-06T01:07:21.354Z,100019.28
2023-03-06T01:09:48.806Z,100019.88
2023-03-06T01:12:17.612Z,100005.78
2023-03-06T01:14:45.433Z,100000.44
2023-03-06T01:17:12.889Z,99994.41
2023-03-06T01:19:40.354Z,99993.44
2023-03-06T01:22:07.854Z,99983.28
2023-03-06T01:24:35.396Z,99977.50
2023-03-06T01:27:02.864Z,99967.91
2023-03-06T01:29:31.707Z,99961.69
2023-03-06T01:31:59.259Z,99961.88
2023-03-06T01:34:26.980Z,99959.28
2023-03-06T01:36:54.413Z,99961.28
2023-03-06T01:39:22.001Z,99950.75
2023-03-06T01:41:49.477Z,99947.97
2023-03-06T01:44:16.944Z,99942.75
2023-03-06T01:46:46.489Z,99939.97
2023-03-06T01:49:19.474Z,99935.25
2023-03-06T01:51:51.186Z,99935.44
2023-03-06T01:54:23.745Z,99929.94
2023-03-06T01:56:55.138Z,99922.31
2023-03-06T01:59:24.655Z,99920.31
2023-03-06T02:01:54.904Z,99917.81
2023-03-06T02:04:22.503Z,99918.88
2023-03-06T02:06:50.640Z,99921.38
2023-03-06T02:09:18.206Z,99916.91
2023-03-06T02:11:46.305Z,99914.03
2023-03-06T02:14:16.277Z,99915.22
2023-03-06T02:16:44.502Z,99906.59
2023-03-06T02:19:22.916Z,99906.06
2023-03-06T02:21:50.840Z,99903.97
2023-03-06T02:24:32.321Z,99902.84
2023-03-06T02:27:04.100Z,99898.13
2023-03-06T02:29:32.236Z,99889.91
2023-03-06T02:31:59.922Z,99885.94
2023-03-06T02:34:57.212Z,99888.19
2023-03-06T02:37:27.482Z,99891.25
2023-03-06T02:40:02.094Z,99878.13
2023-03-06T02:42:31.218Z,99885.03
2023-03-06T02:45:01.867Z,99886.19
2023-03-06T02:47:29.502Z,99877.28
2023-03-06T02:49:56.936Z,99876.56
2023-03-06T02:52:25.158Z,99868.88
2023-03-06T02:54:52.632Z,99870.56
2023-03-06T02:57:20.116Z,99875.09
2023-03-06T02:59:48.843Z,99867.88
2023-03-06T03:02:16.569Z,99858.72
2023-03-06T03:04:44.115Z,99855.72
2023-03-06T03:07:11.599Z,99866.38
2023-03-06T03:09:39.032Z,99867.97
2023-03-06T03:12:08.220Z,99859.06
2023-03-06T03:14:36.044Z,99850.59
2023-03-06T03:17:05.219Z,99850.38
2023-03-06T03:19:32.758Z,99854.91
2023-03-06T03:22:00.199Z,99845.66
2023-03-06T03:24:28.038Z,99849.78
2023-03-06T03:26:55.494Z,99852.75
2023-03-06T03:29:23.025Z,99851.69
2023-03-06T03:31:50.756Z,99844.94
2023-03-06T03:34:19.694Z,99837.38
2023-03-06T03:36:47.426Z,99847.66
2023-03-06T03:39:15.326Z,99842.97
2023-03-06T03:41:42.787Z,99844.34
2023-03-06T03:44:10.963Z,99847.44
2023-03-06T03:46:38.805Z,99838.94
2023-03-06T03:49:06.798Z,99840.13
2023-03-06T03:51:35.729Z,99852.16
2023-03-06T03:54:03.204Z,99855.97
2023-03-06T03:56:30.645Z,99866.78
2023-03-06T03:58:58.781Z,99865.78
2023-03-06T04:01:26.637Z,99863.91
2023-03-06T04:03:54.065Z,99870.91
2023-03-06T04:06:21.522Z,99882.19
2023-03-06T04:08:50.268Z,99880.16
2023-03-06T04:11:18.081Z,99871.88
2023-03-06T04:13:45.618Z,99870.81
2023-03-06T04:16:13.127Z,99873.59
2023-03-06T04:18:40.707Z,99880.81
2023-03-06T04:21:08.146Z,99873.94
2023-03-06T04:23:35.799Z,99882.78
2023-03-06T04:26:05.004Z,99880.56
2023-03-06T04:28:32.430Z,99890.47
2023-03-06T04:30:59.867Z,99877.81
2023-03-06T04:33:27.395Z,99884.88
2023-03-06T04:35:54.822Z,99881.19
2023-03-06T04:38:22.327Z,99888.94
2023-03-06T04:40:50.100Z,99893.13
2023-03-06T04:43:19.063Z,99893.00
2023-03-06T04:45:46.624Z,99887.78
2023-03-06T04:48:15.708Z,99894.19
2023-03-06T04:50:43.212Z,99903.41
2023-03-06T04:53:11.033Z,99904.31
2023-03-06T04:55:38.539Z,99898.22
2023-03-06T04:58:05.979Z,99897.34
2023-03-06T05:00:34.747Z,99897.41
2023-03-06T05:03:02.822Z,99899.41
2023-03-06T05:05:30.518Z,99892.28
2023-03-06T05:07:58.355Z,99896.81
2023-03-06T05:10:25.785Z,99898.31
2023-03-06T05:12:53.294Z,99897.31
2023-03-06T05:15:21.146Z,99897.75
2023-03-06T05:17:50.100Z,99898.53
2023-03-06T05:20:18.966Z,99901.19
2023-03-06T05:22:46.466Z,99903.28
2023-03-06T05:25:13.896Z,99911.53
2023-03-06T05:27:42.000Z,99909.19
2023-03-06T05:30:12.793Z,99912.00
2023-03-06T05:32:40.293Z,99909.22
2023-03-06T05:35:19.693Z,99919.78
2023-03-06T05:37:47.653Z,99920.25
2023-03-06T05:40:16.137Z,99917.19
2023-03-06T05:42:43.603Z,99917.34
2023-03-06T05:45:12.314Z,99916.13
2023-03-06T05:47:39.778Z,99916.06
2023-03-06T05:50:10.501Z,99913.91
2023-03-06T05:52:38.139Z,99911.72
2023-03-06T05:55:06.266Z,99916.13
2023-03-06T05:57:33.685Z,99914.22
2023-03-06T06:00:01.090Z,99915.78
2023-03-06T06:02:28.636Z,99920.28
2023-03-06T06:04:56.046Z,99911.72
2023-03-06T06:07:24.800Z,99911.56
2023-03-06T06:09:54.040Z,99909.97
2023-03-06T06:12:21.558Z,99909.06
2023-03-06T06:14:48.994Z,99918.31
2023-03-06T06:17:16.806Z,99917.97
2023-03-06T06:19:44.464Z,99907.50
2023-03-06T06:22:12.609Z,99911.31
2023-03-06T06:24:41.436Z,99916.81
2023-03-06T06:27:09.709Z,99922.94
2023-03-06T06:29:37.301Z,99921.22
2023-03-06T06:32:04.884Z,99921.72
2023-03-06T06:34:32.368Z,99933.28
2023-03-06T06:36:59.810Z,99930.41
2023-03-06T06:39:28.776Z,99931.88
2023-03-06T06:42:19.463Z,99929.94
2023-03-06T06:44:45.207Z,99929.31
2023-03-06T06:47:28.150Z,99930.72
2023-03-06T06:49:56.833Z,99933.03
2023-03-06T06:52:25.112Z,99927.28
2023-03-06T06:54:53.061Z,99929.53
2023-03-06T06:57:21.895Z,99930.44
2023-03-06T06:59:51.189Z,99929.34
2023-03-06T07:02:19.816Z,99934.47
2023-03-06T07:05:02.359Z,99932.19
2023-03-06T07:07:30.831Z,99933.13
2023-03-06T07:09:58.351Z,99938.22
2023-03-06T07:12:27.208Z,99938.38
2023-03-06T07:14:54.604Z,99948.34
2023-03-06T07:17:22.093Z,99932.28
2023-03-06T07:19:50.128Z,99932.38
2023-03-06T07:22:17.543Z,99943.38
2023-03-06T07:24:44.948Z,99937.50
2023-03-06T07:27:12.408Z,99933.75
2023-03-06T07:29:43.621Z,99932.47
2023-03-06T07:32:12.001Z,99938.69
2023-03-06T07:34:39.452Z,99938.28
2023-03-06T07:37:06.958Z,99941.78
2023-03-06T07:39:34.402Z,99939.66
2023-03-06T07:42:01.822Z,99937.97
2023-03-06T07:44:29.377Z,99936.84
2023-03-06T07:46:58.155Z,99936.94
2023-03-06T07:49:25.595Z,99938.16
2023-03-06T07:51:53.038Z,99936.00
2023-03-06T07:54:20.494Z,99937.78
2023-03-06T07:56:51.255Z,99934.69
2023-03-06T07:59:18.973Z,99929.53
2023-03-06T08:01:46.558Z,99930.63
2023-03-06T08:04:15.338Z,99938.34
2023-03-06T08:06:42.771Z,99936.09
2023-03-06T08:09:10.200Z,99935.03
2023-03-06T08:11:37.627Z,99937.69
2023-03-06T08:14:05.116Z,99931.75
2023-03-06T08:16:32.661Z,99936.81
2023-03-06T08:19:00.121Z,99932.22
2023-03-06T08:21:29.518Z,99940.78
2023-03-06T08:23:57.567Z,99938.22
2023-03-06T08:26:27.587Z,99944.84
2023-03-06T08:28:56.028Z,99937.13
2023-03-06T08:31:27.719Z,99940.06
2023-03-06T08:33:56.076Z,99948.88
2023-03-06T08:36:23.886Z,99941.00
2023-03-06T08:38:52.736Z,99939.59
2023-03-06T08:41:20.618Z,99942.88
2023-03-06T08:43:48.778Z,99947.97
2023-03-06T08:46:16.679Z,99955.69
2023-03-06T08:48:44.188Z,99947.94
2023-03-06T08:51:11.776Z,99947.66
2023-03-06T08:53:44.028Z,99947.38
2023-03-06T08:56:18.139Z,99943.50
2023-03-06T08:58:45.797Z,99949.56
2023-03-06T09:01:14.953Z,99951.50
2023-03-06T09:03:42.458Z,99948.34
2023-03-06T09:06:10.006Z,99942.75
2023-03-06T09:08:37.433Z,99943.84
2023-03-06T09:11:05.123Z,99946.72
2023-03-06T09:13:35.366Z,99943.22
2023-03-06T09:16:02.854Z,99947.22
2023-03-06T09:18:30.324Z,99949.78
2023-03-06T09:20:57.973Z,99941.19
2023-03-06T09:23:25.433Z,99951.44
2023-03-06T09:25:54.475Z,99942.31
2023-03-06T09:28:22.301Z,99947.09
2023-03-06T09:30:51.561Z,99949.78
2023-03-06T09:33:19.405Z,99951.69
2023-03-06T09:35:50.949Z,99951.16
2023-03-06T09:38:18.776Z,99961.56
2023-03-06T09:41:04.480Z,99951.28
2023-03-06T09:43:35.421Z,99954.56
2023-03-06T09:46:14.619Z,99949.50
2023-03-06T09:48:53.789Z,99953.63
2023-03-06T09:51:27.681Z,99950.56
2023-03-06T09:54:02.222Z,99951.00
2023-03-06T09:56:33.986Z,99956.75
2023-03-06T09:59:08.555Z,99956.22
2023-03-06T10:01:41.930Z,99954.59
2023-03-06T10:04:18.148Z,99955.19
2023-03-06T10:06:48.745Z,99953.34
2023-03-06T10:09:20.909Z,99952.78
2023-03-06T10:11:53.775Z,99959.75
2023-03-06T10:14:28.084Z,99956.88
2023-03-06T10:16:58.442Z,99973.03
2023-03-06T10:19:33.837Z,99968.88
2023-03-06T10:22:04.198Z,99965.13
2023-03-06T10:24:47.362Z,99960.72
2023-03-06T10:27:23.442Z,99962.34
2023-03-06T10:30:03.275Z,99955.81
2023-03-06T10:32:48.320Z,99960.97
2023-03-06T10:35:19.726Z,99954.81
2023-03-06T10:37:47.361Z,99959.00
2023-03-06T10:40:17.936Z,99961.56
2023-03-06T10:42:45.394Z,99961.56
2023-03-06T10:45:15.642Z,99956.44
2023-03-06T10:47:44.620Z,99953.69
2023-03-06T10:50:24.797Z,99955.56
2023-03-06T10:53:04.945Z,99964.53
2023-03-06T10:55:34.846Z,99960.78
2023-03-06T10:58:21.064Z,99953.75
2023-03-06T11:00:48.502Z,99948.16
2023-03-06T11:03:23.616Z,99956.06
2023-03-06T11:05:57.451Z,99955.34
2023-03-06T11:08:25.018Z,99957.97
2023-03-06T11:10:58.473Z,99953.59
2023-03-06T11:13:28.420Z,99949.59
2023-03-06T11:15:59.407Z,99952.66
2023-03-06T11:18:34.942Z,99946.94
2023-03-06T11:21:06.318Z,99945.00
2023-03-06T11:23:41.662Z,99945.19
2023-03-06T11:26:25.123Z,99949.09
2023-03-06T11:29:02.804Z,99946.03
2023-03-06T11:31:33.264Z,99939.91
2023-03-06T11:34:08.636Z,99937.16
2023-03-06T11:36:40.727Z,99938.41
2023-03-06T11:39:22.591Z,99937.84
2023-03-06T11:41:57.831Z,99941.78
2023-03-06T11:44:37.472Z,99932.81
2023-03-06T11:47:11.904Z,99938.09
2023-03-06T11:49:45.242Z,99937.56
2023-03-06T11:52:20.801Z,99926.13
2023-03-06T11:54:52.667Z,99926.94
2023-03-06T11:57:23.767Z,99925.53
2023-03-06T12:00:18.031Z,99918.56
2023-03-06T12:03:02.927Z,99921.41
2023-03-06T12:05:48.118Z,99921.47
2023-03-06T12:08:33.836Z,99919.41
2023-03-06T12:14:04.127Z,99919.06
2023-03-06T12:16:41.666Z,99918.31
2023-03-06T12:19:25.423Z,99926.13
2023-03-06T12:22:10.089Z,99922.22
2023-03-06T12:24:56.140Z,99914.78
2023-03-06T12:27:32.389Z,99918.94
2023-03-06T12:30:10.212Z,99919.78
2023-03-06T12:32:50.084Z,99907.81
2023-03-06T12:35:36.226Z,99904.53
2023-03-06T12:38:24.283Z,99913.97
2023-03-06T12:41:05.746Z,99912.34
2023-03-06T12:43:55.906Z,99914.31
2023-03-06T12:46:26.182Z,99922.94
2023-03-06T12:49:04.047Z,99919.22
2023-03-06T12:51:33.102Z,99916.59
2023-03-06T12:54:04.159Z,99921.66
2023-03-06T12:56:33.813Z,99916.19
2023-03-06T12:59:02.455Z,99920.75
2023-03-06T13:01:50.313Z,99922.81
2023-03-06T13:04:34.911Z,99923.84
2023-03-06T13:07:18.704Z,99916.88
2023-03-06T13:10:05.938Z,99919.94
2023-03-06T13:12:55.893Z,99909.22
2023-03-06T13:15:38.285Z,99900.41
2023-03-06T13:18:43.741Z,99898.06
2023-03-06T13:21:44.599Z,99898.06
2023-03-06T13:24:19.118Z,99895.25
2023-03-06T13:26:57.266Z,99897.88
2023-03-06T13:29:57.637Z,99898.91
2023-03-06T13:32:34.640Z,99896.69
2023-03-06T13:35:02.348Z,99891.88
2023-03-06T13:37:54.101Z,99884.22
2023-03-06T13:40:30.754Z,99885.44
2023-03-06T13:43:12.635Z,99888.03
2023-03-06T13:45:43.257Z,99883.94
2023-03-06T13:48:43.054Z,99893.56
2023-03-06T13:51:22.156Z,99900.44
2023-03-06T13:54:25.415Z,99897.53
2023-03-06T13:57:05.094Z,99903.72
2023-03-06T14:00:09.648Z,99898.41
2023-03-06T14:02:59.078Z,99897.72
2023-03-06T14:05:42.123Z,99892.97
2023-03-06T14:08:15.532Z,99888.47
2023-03-06T14:10:44.857Z,99885.91
2023-03-06T14:13:19.266Z,99888.25
2023-03-06T14:15:50.326Z,99885.88
2023-03-06T14:18:23.772Z,99884.88
2023-03-06T14:20:56.441Z,99872.38
2023-03-06T14:23:27.051Z,99885.88
2023-03-06T14:26:06.695Z,99876.91
2023-03-06T14:28:35.854Z,99874.84
2023-03-06T14:31:06.811Z,99872.91
2023-03-06T14:33:42.839Z,99870.22
2023-03-06T14:36:15.849Z,99867.19
2023-03-06T14:38:47.309Z,99866.66
2023-03-06T14:41:24.836Z,99873.00
2023-03-06T14:43:52.578Z,99879.38
2023-03-06T14:46:22.948Z,99877.06
2023-03-06T14:48:50.894Z,99881.84
2023-03-06T14:51:21.296Z,99874.72
2023-03-06T14:53:50.808Z,99875.69
2023-03-06T14:56:24.324Z,99875.94
2023-03-06T14:58:56.385Z,99884.09
2023-03-06T15:01:31.198Z,99878.41
2023-03-06T15:04:01.125Z,99873.88
2023-03-06T15:06:34.553Z,99865.38
2023-03-06T15:09:07.720Z,99870.72
2023-03-06T15:11:52.227Z,99872.41
2023-03-06T15:14:22.323Z,99874.22
2023-03-06T15:16:51.095Z,99875.44
2023-03-06T15:19:20.785Z,99873.50
2023-03-06T15:21:49.887Z,99871.13
2023-03-06T15:24:34.135Z,99874.03
2023-03-06T15:27:05.299Z,99882.47
2023-03-06T15:29:33.673Z,99870.69
2023-03-06T15:32:33.601Z,99868.75
2023-03-06T15:35:28.034Z,99871.47
2023-03-06T15:37:58.612Z,99864.50
2023-03-06T15:40:32.141Z,99863.78
2023-03-06T15:43:00.884Z,99866.44
2023-03-06T15:45:32.488Z,99870.22
2023-03-06T15:48:03.084Z,99863.94
2023-03-06T15:50:31.426Z,99875.38
2023-03-06T15:53:00.363Z,99865.56
2023-03-06T15:55:28.364Z,99864.03
2023-03-06T15:57:59.950Z,99863.66
2023-03-06T16:00:30.100Z,99863.59
2023-03-06T16:02:59.276Z,99859.88
2023-03-06T16:05:30.134Z,99862.78
2023-03-06T16:08:00.457Z,99862.88
2023-03-06T16:10:31.659Z,99864.19
2023-03-06T16:13:07.239Z,99859.22
2023-03-06T16:15:39.984Z,99853.50
2023-03-06T16:18:08.109Z,99857.53
2023-03-06T16:20:41.052Z,99855.53
2023-03-06T16:23:10.929Z,99848.31
2023-03-06T16:25:46.375Z,99851.22
2023-03-06T16:28:17.833Z,99850.88
2023-03-06T16:30:46.687Z,99853.53
2023-03-06T16:33:15.496Z,99849.84
2023-03-06T16:35:46.703Z,99850.38
2023-03-06T16:38:15.653Z,99851.88
2023-03-06T16:40:43.536Z,99849.63
2023-03-06T16:43:13.335Z,99855.34
2023-03-06T16:45:42.182Z,99856.81
2023-03-06T16:48:15.639Z,99858.19
2023-03-06T16:50:44.526Z,99858.81
2023-03-06T16:53:11.984Z,99860.16
2023-03-06T16:55:39.441Z,99858.28
2023-03-06T16:58:08.549Z,99861.91
2023-03-06T17:00:36.014Z,99866.03
2023-03-06T17:03:03.587Z,99868.63
2023-03-06T17:05:34.041Z,99873.31
2023-03-06T17:08:03.613Z,99878.28
2023-03-06T17:10:31.085Z,99873.88
2023-03-06T17:16:46.468Z,99883.28
2023-03-06T17:19:15.237Z,99886.00
2023-03-06T17:21:42.744Z,99884.63
2023-03-06T17:24:11.483Z,99877.66
2023-03-06T17:26:39.090Z,99887.09
2023-03-06T17:29:07.180Z,99880.25
2023-03-06T17:31:34.668Z,99887.94
2023-03-06T17:34:02.130Z,99891.94
2023-03-06T17:36:30.817Z,99892.94
2023-03-06T17:38:59.486Z,99892.66
2023-03-06T17:41:28.861Z,99894.09
2023-03-06T17:43:58.211Z,99889.31
2023-03-06T17:46:26.507Z,99901.91
2023-03-06T17:48:53.951Z,99899.44
2023-03-06T17:51:21.384Z,99907.53
2023-03-06T17:53:49.207Z,99905.25
2023-03-06T17:56:16.733Z,99897.63
2023-03-06T17:58:45.765Z,99899.31
2023-03-06T18:01:22.586Z,99903.03
2023-03-06T18:03:51.866Z,99899.78
2023-03-06T18:06:20.977Z,99896.59
2023-03-06T18:08:51.558Z,99904.03
2023-03-06T18:11:20.393Z,99895.13
2023-03-06T18:13:49.275Z,99896.19
2023-03-06T18:16:18.945Z,99899.38
2023-03-06T18:18:47.301Z,99899.44
2023-03-06T18:21:16.427Z,99899.22
2023-03-06T18:23:43.903Z,99901.19
2023-03-06T18:26:13.413Z,99902.88
2023-03-06T18:28:42.603Z,99906.00
2023-03-06T18:31:17.016Z,99901.94
2023-03-06T18:33:44.578Z,99902.44
2023-03-06T18:36:12.137Z,99910.94
2023-03-06T18:38:41.306Z,99899.78
2023-03-06T18:41:09.366Z,99903.13
2023-03-06T18:43:36.957Z,99907.25
2023-03-06T18:46:05.196Z,99897.06
2023-03-06T18:48:33.936Z,99902.34
2023-03-06T18:51:04.787Z,99894.94
2023-03-06T18:53:32.304Z,99903.78
2023-03-06T18:55:59.801Z,99901.22
2023-03-06T18:58:27.850Z,99898.88
2023-03-06T19:00:56.677Z,99906.03
2023-03-06T19:03:25.145Z,99902.13
2023-03-06T19:05:53.868Z,99904.78
2023-03-06T19:08:21.284Z,99903.13
2023-03-06T19:10:49.960Z,99903.00
2023-03-06T19:13:17.401Z,99894.00
2023-03-06T19:15:45.912Z,99899.13
2023-03-06T19:18:14.899Z,99901.38
2023-03-06T19:20:42.358Z,99896.41
2023-03-06T19:23:11.695Z,99897.34
2023-03-06T19:25:39.150Z,99889.53
2023-03-06T19:28:06.837Z,99890.41
2023-03-06T19:30:34.604Z,99889.34
2023-03-06T19:33:02.004Z,99889.63
2023-03-06T19:35:29.462Z,99887.13
2023-03-06T19:37:56.930Z,99889.13
2023-03-06T19:40:25.680Z,99884.09
2023-03-06T19:42:53.113Z,99887.50
2023-03-06T19:45:20.593Z,99882.97
2023-03-06T19:47:49.209Z,99884.19
2023-03-06T19:50:17.179Z,99882.56
2023-03-06T19:52:44.575Z,99885.41
2023-03-06T19:55:12.103Z,99888.78
2023-03-06T19:57:41.024Z,99879.88
2023-03-06T20:00:09.753Z,99882.63
2023-03-06T20:02:37.442Z,99880.59
2023-03-06T20:05:08.083Z,99882.84
2023-03-06T20:07:36.662Z,99879.69
2023-03-06T20:10:04.589Z,99875.00
2023-03-06T20:12:33.122Z,99881.88
2023-03-06T20:15:01.919Z,99877.38
2023-03-06T20:17:29.981Z,99881.28
2023-03-06T20:19:57.535Z,99869.13
2023-03-06T20:22:24.934Z,99865.13
2023-03-06T20:24:52.551Z,99872.84
2023-03-06T20:27:20.098Z,99866.22
2023-03-06T20:29:47.753Z,99872.78
2023-03-06T20:32:16.621Z,99880.09
2023-03-06T20:34:44.484Z,99868.13
2023-03-06T20:37:12.023Z,99871.16
2023-03-06T20:39:39.435Z,99862.00
2023-03-06T20:42:06.905Z,99853.72
2023-03-06T20:44:34.308Z,99852.50
2023-03-06T20:47:01.724Z,99854.84
2023-03-06T20:49:30.471Z,99852.09
2023-03-06T20:51:57.849Z,99850.72
2023-03-06T20:54:25.367Z,99840.97
2023-03-06T20:56:52.757Z,99844.81
2023-03-06T20:59:20.204Z,99839.00
2023-03-06T21:01:48.185Z,99831.59
2023-03-06T21:04:16.433Z,99834.19
2023-03-06T21:06:47.021Z,99839.22
2023-03-06T21:09:15.904Z,99832.38
2023-03-06T21:11:43.687Z,99834.13
2023-03-06T21:14:13.174Z,99836.53
2023-03-06T21:16:41.218Z,99825.63
2023-03-06T21:19:09.191Z,99835.16
2023-03-06T21:21:36.683Z,99828.41
2023-03-06T21:24:05.798Z,99823.53
2023-03-06T21:26:34.652Z,99821.72
2023-03-06T21:29:02.971Z,99825.34
2023-03-06T21:31:31.675Z,99809.38
2023-03-06T21:33:59.587Z,99809.91
2023-03-06T21:36:27.594Z,99810.47
2023-03-06T21:38:55.785Z,99808.53
2023-03-06T21:41:26.731Z,99809.25
2023-03-06T21:43:56.186Z,99810.72
2023-03-06T21:46:23.739Z,99804.59
2023-03-06T21:48:51.710Z,99805.72
2023-03-06T21:51:20.760Z,99803.25
2023-03-06T21:53:49.609Z,99799.72
2023-03-06T21:56:18.967Z,99804.41
2023-03-06T21:58:47.990Z,99796.66
2023-03-06T22:01:19.129Z,99798.06
2023-03-06T22:03:46.862Z,99800.28
2023-03-06T22:06:16.553Z,99786.59
2023-03-06T22:08:44.674Z,99787.13
2023-03-06T22:11:13.998Z,99788.66
2023-03-06T22:13:42.368Z,99788.53
2023-03-06T22:16:11.754Z,99772.00
2023-03-06T22:18:39.395Z,99770.34
2023-03-06T22:21:08.289Z,99767.63
2023-03-06T22:23:35.744Z,99757.41
2023-03-06T22:26:04.430Z,99755.44
2023-03-06T22:28:31.893Z,99761.28
2023-03-06T22:31:04.923Z,99760.47
2023-03-06T22:33:33.846Z,99759.44
2023-03-06T22:36:06.084Z,99759.19
2023-03-06T22:38:34.654Z,99763.81
2023-03-06T22:41:02.358Z,99755.34
2023-03-06T22:43:30.084Z,99752.91
2023-03-06T22:46:01.742Z,99752.31
2023-03-06T22:48:29.445Z,99743.53
2023-03-06T22:51:02.965Z,99740.72
2023-03-06T22:53:30.695Z,99733.84
2023-03-06T22:55:58.901Z,99730.13
2023-03-06T22:58:26.833Z,99724.84
2023-03-06T23:00:54.459Z,99725.31
2023-03-06T23:03:21.966Z,99715.00
2023-03-06T23:05:49.374Z,99714.38
2023-03-06T23:08:18.111Z,99712.00
2023-03-06T23:10:45.859Z,99706.19
2023-03-06T23:13:13.435Z,99700.22
2023-03-06T23:15:40.897Z,99709.22
2023-03-06T23:18:08.431Z,99708.34
2023-03-06T23:20:35.870Z,99705.34
2023-03-06T23:23:03.374Z,99710.13
2023-03-06T23:25:32.137Z,99709.88
2023-03-06T23:27:59.574Z,99700.59
2023-03-06T23:30:27.030Z,99702.97
2023-03-06T23:32:54.442Z,99695.16
2023-03-06T23:35:21.880Z,99685.47
2023-03-06T23:37:49.323Z,99690.03
2023-03-06T23:40:16.990Z,99678.53
2023-03-06T23:42:45.733Z,99676.88
2023-03-06T23:45:13.173Z,99669.97
2023-03-06T23:47:40.823Z,99677.56
2023-03-06T23:50:09.192Z,99681.41
2023-03-06T23:52:36.635Z,99678.47
2023-03-06T23:55:04.205Z,99669.97
2023-03-06T23:57:31.737Z,99676.13
